createdAt,value
2019-01-30T00:01:27.733Z,31.70
2019-01-30T00:03:58.238Z,37.27
2019-01-30T00:06:28.785Z,27.00
2019-01-30T00:08:59.291Z,32.53
2019-01-30T00:11:29.767Z,32.10
2019-01-30T00:14:00.285Z,36.60
2019-01-30T00:16:30.813Z,40.33
2019-01-30T00:19:03.346Z,33.40
2019-01-30T00:21:33.832Z,36.90
2019-01-30T00:24:04.448Z,32.60
2019-01-30T00:26:34.967Z,28.23
2019-01-30T00:29:05.709Z,28.97
2019-01-30T00:31:36.202Z,32.37
2019-01-30T00:34:06.669Z,33.13
2019-01-30T00:36:37.165Z,26.63
2019-01-30T00:39:08.264Z,30.03
2019-01-30T00:41:38.760Z,30.53
2019-01-30T00:44:09.236Z,30.47
2019-01-30T00:46:39.732Z,31.13
2019-01-30T00:49:10.193Z,26.67
2019-01-30T00:51:40.704Z,26.77
2019-01-30T00:54:11.252Z,29.77
2019-01-30T00:56:41.740Z,31.10
2019-01-30T00:59:12.250Z,28.60
2019-01-30T01:01:42.786Z,26.70
2019-01-30T01:04:13.362Z,31.77
2019-01-30T01:06:43.825Z,31.40
2019-01-30T01:09:14.397Z,32.97
2019-01-30T01:11:44.860Z,26.30
2019-01-30T01:14:15.354Z,33.00
2019-01-30T01:16:45.824Z,33.23
2019-01-30T01:19:16.398Z,30.63
2019-01-30T01:21:46.892Z,35.30
2019-01-30T01:24:17.382Z,33.07
2019-01-30T01:26:47.850Z,28.63
2019-01-30T01:29:18.346Z,32.03
2019-01-30T01:31:48.816Z,28.37
2019-01-30T01:34:19.305Z,31.53
2019-01-30T01:36:49.785Z,32.23
2019-01-30T01:39:20.342Z,31.13
2019-01-30T01:41:50.806Z,30.27
2019-01-30T01:44:21.301Z,32.30
2019-01-30T01:46:51.766Z,34.70
2019-01-30T01:49:22.273Z,34.33
2019-01-30T01:51:52.768Z,26.23
2019-01-30T01:54:23.230Z,31.10
2019-01-30T01:56:53.731Z,30.30
2019-01-30T01:59:24.200Z,29.30
2019-01-30T02:01:54.693Z,33.90
2019-01-30T02:04:25.286Z,29.63
2019-01-30T02:06:55.739Z,32.70
2019-01-30T02:09:26.235Z,30.30
2019-01-30T02:11:56.694Z,29.47
2019-01-30T02:14:27.191Z,28.83
2019-01-30T02:16:57.654Z,30.70
2019-01-30T02:19:28.140Z,30.50
2019-01-30T02:21:58.648Z,31.70
2019-01-30T02:24:29.111Z,38.30
2019-01-30T02:26:59.610Z,37.07
2019-01-30T02:29:30.099Z,35.73
2019-01-30T02:32:00.570Z,35.83
2019-01-30T02:34:31.061Z,30.53
2019-01-30T02:37:01.537Z,30.83
2019-01-30T02:39:32.019Z,33.17
2019-01-30T02:42:02.508Z,33.93
2019-01-30T02:44:32.973Z,30.73
2019-01-30T02:47:03.478Z,33.70
2019-01-30T02:49:33.956Z,39.40
2019-01-30T02:52:04.591Z,29.20
2019-01-30T02:54:35.089Z,35.20
2019-01-30T02:57:05.921Z,28.43
2019-01-30T02:59:36.413Z,29.63
2019-01-30T03:02:11.317Z,31.93
2019-01-30T03:04:41.804Z,30.30
2019-01-30T03:07:12.273Z,32.70
2019-01-30T03:09:42.776Z,28.73
2019-01-30T03:12:13.239Z,29.57
2019-01-30T03:14:43.743Z,30.87
2019-01-30T03:17:14.235Z,26.73
2019-01-30T03:19:44.692Z,24.80
2019-01-30T03:22:15.204Z,26.37
2019-01-30T03:24:45.667Z,32.23
2019-01-30T03:27:16.160Z,32.57
2019-01-30T03:29:46.638Z,33.53
2019-01-30T03:32:17.134Z,28.03
2019-01-30T03:34:47.593Z,33.93
2019-01-30T03:37:18.083Z,31.20
2019-01-30T03:39:48.557Z,29.83
2019-01-30T03:42:19.202Z,29.87
2019-01-30T03:44:49.667Z,30.60
2019-01-30T03:47:20.186Z,36.20
2019-01-30T03:49:50.663Z,36.63
2019-01-30T03:52:21.191Z,33.00
2019-01-30T03:54:51.669Z,33.07
2019-01-30T03:57:22.163Z,30.80
2019-01-30T03:59:52.627Z,28.47
2019-01-30T04:02:23.119Z,31.83
2019-01-30T04:04:53.617Z,28.27
2019-01-30T04:07:24.084Z,32.43
2019-01-30T04:09:54.575Z,33.00
2019-01-30T04:12:25.070Z,40.93
2019-01-30T04:14:55.651Z,33.00
2019-01-30T04:17:26.145Z,32.20
2019-01-30T04:19:56.614Z,31.07
2019-01-30T04:22:27.097Z,32.60
2019-01-30T04:24:57.838Z,32.77
2019-01-30T04:27:28.326Z,35.57
2019-01-30T04:29:58.818Z,26.53
2019-01-30T04:32:29.313Z,28.57
2019-01-30T04:34:59.770Z,33.20
2019-01-30T04:37:30.318Z,30.87
2019-01-30T04:40:00.788Z,29.07
2019-01-30T04:42:31.291Z,26.97
2019-01-30T04:45:02.129Z,26.47
2019-01-30T04:47:32.726Z,32.73
2019-01-30T04:50:03.235Z,34.30
2019-01-30T04:52:33.711Z,30.60
2019-01-30T04:55:06.446Z,27.90
2019-01-30T04:57:36.906Z,22.23
2019-01-30T05:00:39.823Z,31.00
2019-01-30T05:03:10.357Z,25.87
2019-01-30T05:05:40.819Z,27.77
2019-01-30T05:08:11.381Z,30.03
2019-01-30T05:10:41.845Z,32.40
2019-01-30T05:13:12.342Z,34.40
2019-01-30T05:15:42.810Z,29.13
2019-01-30T05:18:13.307Z,35.73
2019-01-30T05:20:43.850Z,33.47
2019-01-30T05:23:14.356Z,33.30
2019-01-30T05:25:44.823Z,39.70
2019-01-30T05:28:15.319Z,42.53
2019-01-30T05:30:45.859Z,40.90
2019-01-30T05:33:16.358Z,37.20
2019-01-30T05:35:46.827Z,35.57
2019-01-30T05:38:17.342Z,37.40
2019-01-30T05:40:47.829Z,40.10
2019-01-30T05:43:18.306Z,43.10
2019-01-30T05:45:48.774Z,40.70
2019-01-30T05:48:19.274Z,45.13
2019-01-30T05:50:49.765Z,45.73
2019-01-30T05:53:20.232Z,47.07
2019-01-30T05:55:50.784Z,44.83
2019-01-30T05:58:21.279Z,43.17
2019-01-30T06:00:51.776Z,44.60
2019-01-30T06:03:22.354Z,43.20
2019-01-30T06:05:52.916Z,39.70
2019-01-30T06:08:23.375Z,46.43
2019-01-30T06:10:53.942Z,49.10
2019-01-30T06:13:24.418Z,45.63
2019-01-30T06:15:54.922Z,43.07
2019-01-30T06:18:25.413Z,46.47
2019-01-30T06:20:55.908Z,40.57
2019-01-30T06:23:26.415Z,51.90
2019-01-30T06:25:56.874Z,48.27
2019-01-30T06:28:29.369Z,41.97
2019-01-30T06:30:59.587Z,44.37
2019-01-30T06:33:30.095Z,45.80
2019-01-30T06:36:00.558Z,45.50
2019-01-30T06:38:31.041Z,42.53
2019-01-30T06:41:01.547Z,50.97
2019-01-30T06:43:32.082Z,41.90
2019-01-30T06:46:02.642Z,48.00
2019-01-30T06:48:33.132Z,45.77
2019-01-30T06:51:03.645Z,47.73
2019-01-30T06:53:34.104Z,51.23
2019-01-30T06:56:04.685Z,57.30
2019-01-30T06:58:35.147Z,51.83
2019-01-30T07:01:08.202Z,43.93
2019-01-30T07:03:38.698Z,51.60
2019-01-30T07:06:09.165Z,46.17
2019-01-30T07:08:39.668Z,58.60
2019-01-30T07:11:11.039Z,47.60
2019-01-30T07:13:41.700Z,51.77
2019-01-30T07:16:12.193Z,55.27
2019-01-30T07:18:42.696Z,54.70
2019-01-30T07:21:13.156Z,54.77
2019-01-30T07:23:43.665Z,55.03
2019-01-30T07:26:14.115Z,88.30
2019-01-30T07:28:44.601Z,51.03
2019-01-30T07:31:15.093Z,52.73
2019-01-30T07:33:45.548Z,52.90
2019-01-30T07:36:16.056Z,51.47
2019-01-30T07:38:46.513Z,49.70
2019-01-30T07:41:17.083Z,48.57
2019-01-30T07:43:47.542Z,49.07
2019-01-30T07:46:18.036Z,40.20
2019-01-30T07:48:48.500Z,36.00
2019-01-30T07:51:18.995Z,45.13
2019-01-30T07:53:49.465Z,39.43
2019-01-30T07:56:19.944Z,37.93
2019-01-30T07:58:51.726Z,40.10
2019-01-30T08:01:22.307Z,34.00
2019-01-30T08:03:52.779Z,35.57
2019-01-30T08:06:23.270Z,33.67
2019-01-30T08:08:53.810Z,32.80
2019-01-30T08:11:26.653Z,32.40
2019-01-30T08:13:57.123Z,35.90
2019-01-30T08:16:27.587Z,30.53
2019-01-30T08:18:58.096Z,31.40
2019-01-30T08:21:28.551Z,26.90
2019-01-30T08:23:59.461Z,31.53
2019-01-30T08:26:30.440Z,29.93
2019-01-30T08:29:01.445Z,30.70
2019-01-30T08:31:32.109Z,31.17
2019-01-30T08:34:02.661Z,35.80
2019-01-30T08:36:33.156Z,29.23
2019-01-30T08:39:06.063Z,36.80
2019-01-30T08:41:36.600Z,34.27
2019-01-30T08:44:07.225Z,38.27
2019-01-30T08:46:37.727Z,36.20
2019-01-30T08:49:08.181Z,35.10
2019-01-30T08:51:38.672Z,35.53
2019-01-30T08:54:09.257Z,32.70
2019-01-30T08:56:52.407Z,29.70
2019-01-30T08:59:11.998Z,28.60
2019-01-30T09:01:42.469Z,26.17
2019-01-30T09:04:12.941Z,27.63
2019-01-30T09:06:43.423Z,30.17
2019-01-30T09:09:13.915Z,26.77
2019-01-30T09:11:44.420Z,26.53
2019-01-30T09:14:14.949Z,25.70
2019-01-30T09:16:45.443Z,25.33
2019-01-30T09:19:15.937Z,24.80
2019-01-30T09:21:46.397Z,28.57
2019-01-30T09:24:16.896Z,46.63
2019-01-30T09:26:47.388Z,33.60
2019-01-30T09:29:17.890Z,22.67
2019-01-30T09:31:48.411Z,22.87
2019-01-30T09:34:18.920Z,23.87
2019-01-30T09:36:49.407Z,23.30
2019-01-30T09:39:19.927Z,28.73
2019-01-30T09:41:50.394Z,22.57
2019-01-30T09:44:20.917Z,22.03
2019-01-30T09:46:51.356Z,25.63
2019-01-30T09:49:21.860Z,22.30
2019-01-30T09:51:52.367Z,24.87
2019-01-30T09:54:22.800Z,20.57
2019-01-30T09:56:53.310Z,24.67
2019-01-30T09:59:23.769Z,22.03
2019-01-30T10:01:54.266Z,24.13
2019-01-30T10:04:25.787Z,23.37
2019-01-30T10:06:56.300Z,23.73
2019-01-30T10:09:26.774Z,116.23
2019-01-30T10:11:57.262Z,89.20
2019-01-30T10:14:27.725Z,33.87
2019-01-30T10:16:58.246Z,28.20
2019-01-30T10:19:28.704Z,25.10
2019-01-30T10:21:59.193Z,31.00
2019-01-30T10:24:29.702Z,28.70
2019-01-30T10:27:00.187Z,25.60
2019-01-30T10:29:30.672Z,27.20
2019-01-30T10:32:01.124Z,20.57
2019-01-30T10:34:32.751Z,24.60
2019-01-30T10:37:03.728Z,23.23
2019-01-30T10:39:34.385Z,22.70
2019-01-30T10:42:06.389Z,22.27
2019-01-30T10:44:36.918Z,25.47
2019-01-30T10:47:07.427Z,28.60
2019-01-30T10:49:37.952Z,27.90
2019-01-30T10:52:08.719Z,24.17
2019-01-30T10:54:39.182Z,23.63
2019-01-30T10:57:09.756Z,22.30
2019-01-30T10:59:40.214Z,24.30
2019-01-30T11:02:10.834Z,23.17
2019-01-30T11:04:41.338Z,23.17
2019-01-30T11:07:11.817Z,23.50
2019-01-30T11:09:42.404Z,21.37
2019-01-30T11:12:12.864Z,25.60
2019-01-30T11:14:43.372Z,25.70
2019-01-30T11:17:13.843Z,26.97
2019-01-30T11:19:45.516Z,27.03
2019-01-30T11:22:16.068Z,23.43
2019-01-30T11:24:46.645Z,25.03
2019-01-30T11:27:17.241Z,29.77
2019-01-30T11:29:47.740Z,24.87
2019-01-30T11:32:18.268Z,24.97
2019-01-30T11:34:48.776Z,24.47
2019-01-30T11:37:19.237Z,23.37
2019-01-30T11:39:49.720Z,24.30
2019-01-30T11:42:20.182Z,27.77
2019-01-30T11:44:50.663Z,24.27
2019-01-30T11:47:21.122Z,24.90
2019-01-30T11:49:51.613Z,26.53
2019-01-30T11:52:22.085Z,24.10
2019-01-30T11:54:52.574Z,28.00
2019-01-30T11:57:23.121Z,20.83
2019-01-30T11:59:53.632Z,23.17
2019-01-30T12:02:24.130Z,23.07
2019-01-30T12:04:54.701Z,20.33
2019-01-30T12:07:25.162Z,25.80
2019-01-30T12:09:56.038Z,22.63
2019-01-30T12:12:28.141Z,25.30
2019-01-30T12:14:58.637Z,22.60
2019-01-30T12:17:29.103Z,26.87
2019-01-30T12:19:59.592Z,26.03
2019-01-30T12:22:30.056Z,24.30
2019-01-30T12:25:00.547Z,23.47
2019-01-30T12:27:31.016Z,27.57
2019-01-30T12:30:01.524Z,23.33
2019-01-30T12:32:31.985Z,26.27
2019-01-30T12:35:02.473Z,22.63
2019-01-30T12:37:32.952Z,21.97
2019-01-30T12:40:05.154Z,23.40
2019-01-30T12:42:35.705Z,28.30
2019-01-30T12:45:13.568Z,24.40
2019-01-30T12:47:44.093Z,24.27
2019-01-30T12:50:14.692Z,20.97
2019-01-30T12:52:45.263Z,26.00
2019-01-30T12:55:16.083Z,29.73
2019-01-30T12:57:46.611Z,24.30
2019-01-30T13:00:24.009Z,22.40
2019-01-30T13:02:54.623Z,24.10
2019-01-30T13:05:26.743Z,25.13
2019-01-30T13:07:57.206Z,22.03
2019-01-30T13:10:27.784Z,22.60
2019-01-30T13:12:58.241Z,21.50
2019-01-30T13:15:31.932Z,19.13
2019-01-30T13:18:02.402Z,21.83
2019-01-30T13:20:32.882Z,20.10
2019-01-30T13:23:03.343Z,21.80
2019-01-30T13:25:34.342Z,24.37
2019-01-30T13:28:05.782Z,28.33
2019-01-30T13:30:39.069Z,24.63
2019-01-30T13:33:10.767Z,23.20
2019-01-30T13:35:41.361Z,23.50
2019-01-30T13:38:11.873Z,26.17
2019-01-30T13:40:42.667Z,24.63
2019-01-30T13:43:13.172Z,20.87
2019-01-30T13:45:43.690Z,23.20
2019-01-30T13:48:14.591Z,27.20
2019-01-30T13:50:45.091Z,24.33
2019-01-30T13:53:15.627Z,26.13
2019-01-30T13:55:46.191Z,27.57
2019-01-30T13:58:16.665Z,23.27
2019-01-30T14:00:47.226Z,22.70
2019-01-30T14:03:17.701Z,25.80
2019-01-30T14:05:48.236Z,25.23
2019-01-30T14:08:20.244Z,24.40
2019-01-30T14:10:50.752Z,25.00
2019-01-30T14:13:21.298Z,24.50
2019-01-30T14:15:51.797Z,22.20
2019-01-30T14:18:22.330Z,23.10
2019-01-30T14:20:52.839Z,23.00
2019-01-30T14:23:23.303Z,23.47
2019-01-30T14:25:53.891Z,26.13
2019-01-30T14:28:24.374Z,23.93
2019-01-30T14:30:54.917Z,28.90
2019-01-30T14:33:25.452Z,28.10
2019-01-30T14:35:55.986Z,24.37
2019-01-30T14:38:26.593Z,25.70
2019-01-30T14:40:57.069Z,28.87
2019-01-30T14:43:27.556Z,26.10
2019-01-30T14:45:58.076Z,28.73
2019-01-30T14:48:28.516Z,30.57
2019-01-30T14:50:58.986Z,25.53
2019-01-30T14:53:29.523Z,30.73
2019-01-30T14:56:00.069Z,31.20
2019-01-30T14:58:30.603Z,25.30
2019-01-30T15:01:01.067Z,30.70
2019-01-30T15:03:31.559Z,32.23
2019-01-30T15:06:02.087Z,32.07
2019-01-30T15:08:32.624Z,31.67
2019-01-30T15:11:03.226Z,28.50
2019-01-30T15:13:33.794Z,31.40
2019-01-30T15:16:04.405Z,32.43
2019-01-30T15:18:34.864Z,29.67
2019-01-30T15:21:05.807Z,25.37
2019-01-30T15:23:36.299Z,22.63
2019-01-30T15:26:06.903Z,25.00
2019-01-30T15:28:37.411Z,25.40
2019-01-30T15:31:07.869Z,25.10
2019-01-30T15:33:38.407Z,30.43
2019-01-30T15:36:08.865Z,28.10
2019-01-30T15:38:39.367Z,29.70
2019-01-30T15:41:09.939Z,28.07
2019-01-30T15:43:40.389Z,33.47
2019-01-30T15:46:10.854Z,29.83
2019-01-30T15:48:41.361Z,29.60
2019-01-30T15:51:11.818Z,27.80
2019-01-30T15:53:42.619Z,39.87
2019-01-30T15:56:13.116Z,31.90
2019-01-30T15:58:45.251Z,32.20
2019-01-30T16:01:16.069Z,32.37
2019-01-30T16:03:46.536Z,32.77
2019-01-30T16:06:17.040Z,37.33
2019-01-30T16:08:47.568Z,30.93
2019-01-30T16:11:18.042Z,34.47
2019-01-30T16:13:48.556Z,33.23
2019-01-30T16:16:19.176Z,31.40
2019-01-30T16:18:49.666Z,34.80
2019-01-30T16:21:20.174Z,33.87
2019-01-30T16:23:50.702Z,29.97
2019-01-30T16:26:21.252Z,34.30
2019-01-30T16:28:51.731Z,34.73
2019-01-30T16:31:22.231Z,31.43
2019-01-30T16:33:52.739Z,33.40
2019-01-30T16:36:25.187Z,33.90
2019-01-30T16:38:55.888Z,36.23
2019-01-30T16:41:26.380Z,36.17
2019-01-30T16:43:56.891Z,36.37
2019-01-30T16:46:27.350Z,34.47
2019-01-30T16:48:57.852Z,35.43
2019-01-30T16:51:28.312Z,40.70
2019-01-30T16:53:58.810Z,57.33
2019-01-30T16:56:29.269Z,44.17
2019-01-30T16:58:59.769Z,39.77
2019-01-30T17:01:30.226Z,40.27
2019-01-30T17:04:00.723Z,40.07
2019-01-30T17:06:31.183Z,44.50
2019-01-30T17:09:01.688Z,41.50
2019-01-30T17:11:32.219Z,82.77
2019-01-30T17:14:02.814Z,57.23
2019-01-30T17:16:36.227Z,57.57
2019-01-30T17:19:07.574Z,60.77
2019-01-30T17:21:38.105Z,50.90
2019-01-30T17:24:08.602Z,55.13
2019-01-30T17:26:39.222Z,50.90
2019-01-30T17:29:09.734Z,58.27
2019-01-30T17:31:40.201Z,59.93
2019-01-30T17:34:10.690Z,66.23
2019-01-30T17:36:41.184Z,59.80
2019-01-30T17:39:11.634Z,63.97
2019-01-30T17:41:44.166Z,58.53
2019-01-30T17:44:14.671Z,62.57
2019-01-30T17:46:45.159Z,59.97
2019-01-30T17:49:15.619Z,56.70
2019-01-30T17:51:46.143Z,57.53
2019-01-30T17:54:18.276Z,58.47
2019-01-30T17:56:48.916Z,60.70
2019-01-30T17:59:19.409Z,65.00
2019-01-30T18:01:49.874Z,56.30
2019-01-30T18:04:20.335Z,59.30
2019-01-30T18:06:50.915Z,63.53
2019-01-30T18:09:21.446Z,67.07
2019-01-30T18:11:51.951Z,67.97
2019-01-30T18:14:22.430Z,61.23
2019-01-30T18:16:52.946Z,57.67
2019-01-30T18:19:23.446Z,49.80
2019-01-30T18:21:54.106Z,66.77
2019-01-30T18:24:24.612Z,64.50
2019-01-30T18:26:55.076Z,63.10
2019-01-30T18:29:25.571Z,53.60
2019-01-30T18:31:56.034Z,63.80
2019-01-30T18:34:26.523Z,62.57
2019-01-30T18:36:56.993Z,60.10
2019-01-30T18:39:27.491Z,60.93
2019-01-30T18:41:58.010Z,69.73
2019-01-30T18:44:28.499Z,59.37
2019-01-30T18:46:58.981Z,58.93
2019-01-30T18:49:29.548Z,65.57
2019-01-30T18:52:00.035Z,54.50
2019-01-30T18:54:30.767Z,59.20
2019-01-30T18:57:01.285Z,61.33
2019-01-30T18:59:31.750Z,63.40
2019-01-30T19:02:02.293Z,63.77
2019-01-30T19:04:33.918Z,62.27
2019-01-30T19:07:04.420Z,61.80
2019-01-30T19:09:34.900Z,65.23
2019-01-30T19:12:05.726Z,67.40
2019-01-30T19:14:36.187Z,60.63
2019-01-30T19:17:06.916Z,65.23
2019-01-30T19:19:37.375Z,58.67
2019-01-30T19:22:10.159Z,72.73
2019-01-30T19:24:40.128Z,65.10
2019-01-30T19:27:10.698Z,63.30
2019-01-30T19:29:41.199Z,62.83
2019-01-30T19:32:12.650Z,61.13
2019-01-30T19:34:43.185Z,62.23
2019-01-30T19:37:13.637Z,58.50
2019-01-30T19:39:44.134Z,62.53
2019-01-30T19:42:14.587Z,58.30
2019-01-30T19:44:47.917Z,61.57
2019-01-30T19:47:18.506Z,55.17
2019-01-30T19:49:48.998Z,58.20
2019-01-30T19:52:19.559Z,61.13
2019-01-30T19:54:50.049Z,61.57
2019-01-30T19:57:20.620Z,62.57
2019-01-30T19:59:51.088Z,63.20
2019-01-30T20:02:21.571Z,60.60
2019-01-30T20:04:52.145Z,57.53
2019-01-30T20:07:22.604Z,61.90
2019-01-30T20:09:53.129Z,57.63
2019-01-30T20:12:23.774Z,61.20
2019-01-30T20:14:54.247Z,59.90
2019-01-30T20:17:24.798Z,58.90
2019-01-30T20:19:55.320Z,57.10
2019-01-30T20:22:25.816Z,59.43
2019-01-30T20:24:56.305Z,60.30
2019-01-30T20:27:26.797Z,52.73
2019-01-30T20:29:57.289Z,56.33
2019-01-30T20:32:29.281Z,57.17
2019-01-30T20:34:59.774Z,57.80
2019-01-30T20:37:30.244Z,57.57
2019-01-30T20:40:00.751Z,63.70
2019-01-30T20:42:31.213Z,60.10
2019-01-30T20:45:01.712Z,60.73
2019-01-30T20:47:32.199Z,60.47
2019-01-30T20:50:02.685Z,55.80
2019-01-30T20:52:33.198Z,59.17
2019-01-30T20:55:04.649Z,62.83
2019-01-30T20:57:35.262Z,57.13
2019-01-30T21:00:13.150Z,61.20
2019-01-30T21:02:43.712Z,56.90
2019-01-30T21:05:14.510Z,67.07
2019-01-30T21:07:45.002Z,57.83
2019-01-30T21:10:25.281Z,59.60
2019-01-30T21:12:55.775Z,61.83
2019-01-30T21:15:28.445Z,60.33
2019-01-30T21:17:59.966Z,81.90
2019-01-30T21:20:30.497Z,79.10
2019-01-30T21:23:01.312Z,65.27
2019-01-30T21:25:31.843Z,72.97
2019-01-30T21:28:02.348Z,71.53
2019-01-30T21:30:38.465Z,68.60
2019-01-30T21:33:13.299Z,72.40
2019-01-30T21:35:43.776Z,76.80
2019-01-30T21:38:14.248Z,78.40
2019-01-30T21:40:45.714Z,64.77
2019-01-30T21:43:16.172Z,76.73
2019-01-30T21:45:46.794Z,58.13
2019-01-30T21:48:17.251Z,67.47
2019-01-30T21:50:47.736Z,64.27
2019-01-30T21:53:18.887Z,69.33
2019-01-30T21:55:49.346Z,68.63
2019-01-30T21:58:19.849Z,63.90
2019-01-30T22:00:50.378Z,58.03
2019-01-30T22:03:20.886Z,62.80
2019-01-30T22:05:51.431Z,61.10
2019-01-30T22:08:21.908Z,63.10
2019-01-30T22:10:55.076Z,69.17
2019-01-30T22:13:25.552Z,65.70
2019-01-30T22:15:56.068Z,71.80
2019-01-30T22:18:26.557Z,69.47
2019-01-30T22:20:57.063Z,67.60
2019-01-30T22:23:27.579Z,72.83
2019-01-30T22:25:58.104Z,74.57
2019-01-30T22:28:28.601Z,73.37
2019-01-30T22:30:59.125Z,68.73
2019-01-30T22:33:31.262Z,62.47
2019-01-30T22:36:01.771Z,70.90
2019-01-30T22:38:32.279Z,61.93
2019-01-30T22:41:02.787Z,75.10
2019-01-30T22:43:33.313Z,66.67
2019-01-30T22:46:03.980Z,74.03
2019-01-30T22:48:34.466Z,65.87
2019-01-30T22:51:05.052Z,65.67
2019-01-30T22:53:35.532Z,64.93
2019-01-30T22:56:06.323Z,76.60
2019-01-30T22:58:36.868Z,70.77
2019-01-30T23:01:14.834Z,69.23
2019-01-30T23:03:55.814Z,59.60
2019-01-30T23:06:48.294Z,63.37
2019-01-30T23:09:41.892Z,67.53
2019-01-30T23:12:48.605Z,67.70
2019-01-30T23:15:54.094Z,61.40
2019-01-30T23:18:47.238Z,57.73
2019-01-30T23:21:31.477Z,66.40
2019-01-30T23:24:32.425Z,61.43
2019-01-30T23:27:10.587Z,59.70
2019-01-30T23:30:08.319Z,56.17
2019-01-30T23:33:07.640Z,68.70
2019-01-30T23:35:57.090Z,67.60
2019-01-30T23:38:47.065Z,74.80
2019-01-30T23:41:44.536Z,66.70
2019-01-30T23:44:25.211Z,69.87
2019-01-30T23:47:00.424Z,62.47
2019-01-30T23:49:40.787Z,68.43
2019-01-30T23:52:51.708Z,66.47
2019-01-30T23:55:32.322Z,72.10
2019-01-30T23:58:19.256Z,67.13
